createdAt,value
2019-02-07T00:01:03.595Z,10.50
2019-02-07T00:06:07.844Z,10.27
2019-02-07T00:11:12.015Z,9.90
2019-02-07T00:16:16.264Z,10.97
2019-02-07T00:21:21.713Z,9.47
2019-02-07T00:26:26.055Z,9.33
2019-02-07T00:31:30.260Z,8.50
2019-02-07T00:36:34.469Z,7.93
2019-02-07T00:41:38.675Z,10.13
2019-02-07T00:46:42.869Z,9.40
2019-02-07T00:51:47.070Z,10.50
2019-02-07T00:56:51.632Z,11.37
2019-02-07T01:01:55.834Z,8.87
2019-02-07T01:07:00.101Z,10.70
2019-02-07T01:12:04.539Z,8.67
2019-02-07T01:17:08.722Z,10.37
2019-02-07T01:22:12.919Z,14.77
2019-02-07T01:27:17.106Z,12.17
2019-02-07T01:32:21.302Z,12.47
2019-02-07T01:37:25.663Z,11.90
2019-02-07T01:42:29.866Z,11.77
2019-02-07T01:47:34.058Z,11.27
2019-02-07T01:52:38.334Z,11.47
2019-02-07T01:57:43.010Z,11.70
2019-02-07T02:02:47.231Z,10.40
2019-02-07T02:07:51.402Z,10.03
2019-02-07T02:12:55.674Z,9.00
2019-02-07T02:17:59.996Z,9.27
2019-02-07T02:23:04.404Z,9.37
2019-02-07T02:28:08.643Z,8.77
2019-02-07T02:33:14.219Z,8.37
2019-02-07T02:38:18.511Z,9.17
2019-02-07T02:43:22.757Z,8.90
2019-02-07T02:48:26.941Z,10.30
2019-02-07T02:53:31.150Z,8.77
2019-02-07T02:58:35.352Z,9.33
2019-02-07T03:03:58.806Z,8.10
2019-02-07T03:09:20.860Z,9.27
2019-02-07T03:14:38.032Z,8.93
2019-02-07T03:19:51.681Z,8.90
2019-02-07T03:25:22.475Z,9.37
2019-02-07T03:30:38.855Z,9.37
2019-02-07T03:36:03.819Z,9.10
2019-02-07T03:41:27.546Z,8.33
2019-02-07T03:46:51.118Z,8.83
2019-02-07T03:52:13.311Z,6.80
2019-02-07T03:57:37.254Z,8.07
2019-02-07T04:02:59.332Z,8.33
2019-02-07T04:08:23.343Z,9.17
2019-02-07T04:13:45.351Z,8.43
2019-02-07T04:19:16.038Z,8.37
2019-02-07T04:24:57.807Z,7.53
2019-02-07T04:30:13.368Z,8.10
2019-02-07T04:35:26.791Z,8.03
2019-02-07T04:40:50.129Z,8.03
2019-02-07T04:46:26.724Z,9.10
2019-02-07T04:51:40.466Z,7.23
2019-02-07T04:57:09.975Z,8.70
2019-02-07T05:02:35.898Z,9.00
2019-02-07T05:07:59.405Z,6.03
2019-02-07T05:13:41.577Z,10.47
2019-02-07T05:19:21.008Z,10.87
2019-02-07T05:24:37.596Z,12.13
2019-02-07T05:29:51.321Z,9.90
2019-02-07T05:35:10.042Z,8.63
2019-02-07T05:40:21.646Z,11.30
2019-02-07T05:46:00.356Z,8.93
2019-02-07T05:51:29.655Z,12.03
2019-02-07T05:56:53.043Z,7.47
2019-02-07T06:02:22.644Z,10.33
2019-02-07T06:07:45.371Z,8.47
2019-02-07T06:13:07.653Z,3.43
2019-02-07T06:18:23.969Z,10.93
2019-02-07T06:23:47.047Z,10.97
2019-02-07T06:29:11.368Z,11.17
2019-02-07T06:34:30.343Z,10.73
2019-02-07T06:39:57.097Z,10.97
2019-02-07T06:45:16.578Z,11.50
2019-02-07T06:50:38.122Z,10.07
2019-02-07T06:56:04.547Z,7.90
2019-02-07T07:01:27.895Z,8.50
2019-02-07T07:06:46.294Z,9.07
2019-02-07T07:12:07.380Z,8.37
2019-02-07T07:17:39.256Z,10.60
2019-02-07T07:23:18.079Z,8.40
2019-02-07T07:28:57.942Z,11.07
2019-02-07T07:34:25.414Z,8.60
2019-02-07T07:39:58.284Z,10.77
2019-02-07T07:45:24.925Z,10.10
2019-02-07T07:50:47.138Z,9.40
2019-02-07T07:56:16.627Z,9.93
2019-02-07T08:01:39.442Z,6.73
2019-02-07T08:07:01.799Z,4.33
2019-02-07T08:12:21.356Z,8.80
2019-02-07T08:17:57.831Z,10.10
2019-02-07T08:23:25.037Z,11.37
2019-02-07T08:28:52.584Z,9.03
2019-02-07T08:34:14.913Z,8.03
2019-02-07T08:39:39.475Z,11.83
2019-02-07T08:45:01.254Z,13.17
2019-02-07T08:50:24.499Z,12.83
2019-02-07T08:55:55.239Z,13.67
2019-02-07T09:01:08.127Z,9.63
2019-02-07T09:06:22.911Z,11.57
2019-02-07T09:11:46.532Z,12.47
2019-02-07T09:17:07.200Z,9.37
2019-02-07T09:22:34.744Z,11.10
2019-02-07T09:27:50.699Z,10.87
2019-02-07T09:33:26.771Z,10.87
2019-02-07T09:38:47.591Z,9.50
2019-02-07T09:44:26.119Z,13.70
2019-02-07T09:49:39.914Z,10.00
2019-02-07T09:55:06.599Z,9.77
2019-02-07T10:00:24.580Z,11.87
2019-02-07T10:05:51.427Z,14.00
2019-02-07T10:11:18.930Z,11.43
2019-02-07T10:16:46.079Z,11.90
2019-02-07T10:22:06.332Z,11.57
2019-02-07T10:27:41.769Z,17.20
2019-02-07T10:33:00.472Z,13.10
2019-02-07T10:38:20.235Z,13.33
2019-02-07T10:43:41.799Z,11.93
2019-02-07T10:48:58.136Z,9.13
2019-02-07T10:54:21.391Z,15.13
2019-02-07T10:59:44.856Z,13.03
2019-02-07T11:05:08.994Z,10.57
2019-02-07T11:10:32.589Z,14.07
2019-02-07T11:16:05.260Z,9.57
2019-02-07T11:21:27.930Z,11.20
2019-02-07T11:26:58.154Z,10.87
2019-02-07T11:32:20.541Z,14.20
2019-02-07T11:37:42.839Z,14.37
2019-02-07T11:43:03.080Z,14.43
2019-02-07T11:48:40.535Z,10.37
2019-02-07T11:59:34.170Z,12.40
2019-02-07T12:05:03.331Z,15.10
2019-02-07T12:10:28.411Z,11.60
2019-02-07T12:15:47.139Z,13.10
2019-02-07T12:21:14.978Z,15.50
2019-02-07T12:26:36.967Z,13.57
2019-02-07T12:37:04.511Z,11.70
2019-02-07T12:42:28.596Z,16.03
2019-02-07T12:47:51.949Z,14.03
2019-02-07T12:53:31.506Z,14.03
2019-02-07T12:58:51.601Z,11.53
2019-02-07T13:04:14.967Z,12.47
2019-02-07T13:09:53.417Z,14.43
2019-02-07T13:15:21.974Z,10.47
2019-02-07T13:20:35.807Z,14.77
2019-02-07T13:26:17.475Z,16.97
2019-02-07T13:31:39.028Z,14.33
2019-02-07T13:37:05.642Z,13.63
2019-02-07T13:42:29.217Z,13.10
2019-02-07T13:47:58.591Z,15.87
2019-02-07T13:53:21.348Z,16.17
2019-02-07T13:58:38.167Z,13.67
2019-02-07T14:04:03.073Z,12.57
2019-02-07T14:09:26.003Z,12.27
2019-02-07T14:14:50.894Z,17.13
2019-02-07T14:20:11.061Z,13.37
2019-02-07T14:25:26.242Z,12.80
2019-02-07T14:30:48.162Z,14.10
2019-02-07T14:36:25.182Z,19.80
2019-02-07T14:41:47.254Z,16.23
2019-02-07T14:46:53.198Z,14.00
2019-02-07T14:51:57.453Z,18.87
2019-02-07T14:57:01.837Z,18.53
2019-02-07T15:02:06.157Z,17.67
2019-02-07T15:07:10.775Z,15.93
2019-02-07T15:12:16.524Z,18.97
2019-02-07T15:17:20.871Z,16.73
2019-02-07T15:22:25.211Z,19.87
2019-02-07T15:27:29.424Z,18.60
2019-02-07T15:32:34.921Z,14.17
2019-02-07T15:37:39.223Z,16.33
2019-02-07T15:42:43.540Z,12.53
2019-02-07T15:47:47.821Z,14.40
2019-02-07T15:52:53.376Z,14.20
2019-02-07T15:57:57.731Z,16.63
2019-02-07T16:03:06.663Z,16.83
2019-02-07T16:08:11.239Z,12.73
2019-02-07T16:13:16.434Z,14.77
2019-02-07T16:18:20.683Z,15.07
2019-02-07T16:23:25.736Z,15.10
2019-02-07T16:28:30.151Z,14.57
2019-02-07T16:38:50.704Z,17.40
2019-02-07T16:43:55.419Z,15.10
2019-02-07T16:48:59.691Z,15.73
2019-02-07T16:59:18.923Z,14.33
2019-02-07T17:04:24.531Z,15.23
2019-02-07T17:09:39.387Z,18.90
2019-02-07T17:14:44.143Z,16.07
2019-02-07T17:19:48.410Z,14.60
2019-02-07T17:24:53.950Z,14.57
2019-02-07T17:29:58.200Z,16.63
2019-02-07T17:35:03.012Z,15.53
2019-02-07T17:40:09.165Z,16.37
2019-02-07T17:50:30.272Z,14.67
2019-02-07T17:55:34.713Z,14.07
2019-02-07T18:00:50.084Z,15.07
2019-02-07T18:05:54.451Z,13.80
2019-02-07T18:10:58.756Z,17.07
2019-02-07T18:16:03.963Z,14.97
2019-02-07T18:21:08.198Z,19.40
2019-02-07T18:26:13.283Z,17.07
2019-02-07T18:31:17.638Z,18.43
2019-02-07T18:36:22.178Z,19.40
2019-02-07T18:41:26.570Z,19.10
2019-02-07T18:46:30.945Z,21.33
2019-02-07T18:51:44.948Z,16.57
2019-02-07T18:56:42.459Z,18.90
2019-02-07T19:01:47.468Z,15.80
2019-02-07T19:06:52.838Z,19.40
2019-02-07T19:11:57.194Z,15.23
2019-02-07T19:17:03.113Z,15.67
2019-02-07T19:22:07.638Z,15.60
2019-02-07T19:27:13.244Z,16.97
2019-02-07T19:32:17.472Z,17.37
2019-02-07T19:37:23.002Z,14.53
2019-02-07T19:42:27.206Z,15.97
2019-02-07T19:47:31.804Z,14.00
2019-02-07T19:52:36.269Z,15.00
2019-02-07T19:57:43.451Z,17.70
2019-02-07T20:02:48.193Z,15.87
2019-02-07T20:07:53.713Z,16.30
2019-02-07T20:12:58.163Z,15.40
2019-02-07T20:18:02.882Z,15.00
2019-02-07T20:23:07.206Z,14.30
2019-02-07T20:28:13.087Z,15.97
2019-02-07T20:33:17.354Z,18.63
2019-02-07T20:38:21.707Z,17.03
2019-02-07T20:43:26.019Z,14.20
2019-02-07T20:48:30.296Z,13.50
2019-02-07T20:53:34.571Z,16.43
2019-02-07T20:58:39.151Z,15.20
2019-02-07T21:03:43.472Z,15.23
2019-02-07T21:08:49.137Z,14.53
2019-02-07T21:13:53.453Z,16.03
2019-02-07T21:18:58.773Z,16.87
2019-02-07T21:24:03.083Z,14.37
2019-02-07T21:29:08.746Z,13.43
2019-02-07T21:34:13.421Z,12.70
2019-02-07T21:39:18.563Z,15.40
2019-02-07T21:44:22.856Z,15.87
2019-02-07T21:49:27.082Z,14.23
2019-02-07T21:54:31.479Z,13.70
2019-02-07T21:59:36.823Z,14.57
2019-02-07T22:04:42.350Z,15.23
2019-02-07T22:09:46.566Z,13.33
2019-02-07T22:14:50.838Z,15.30
2019-02-07T22:19:55.029Z,14.67
2019-02-07T22:24:59.760Z,11.43
2019-02-07T22:30:05.595Z,12.30
2019-02-07T22:35:09.811Z,15.33
2019-02-07T22:40:15.174Z,15.20
2019-02-07T22:45:19.984Z,16.50
2019-02-07T22:50:25.177Z,12.60
2019-02-07T22:55:29.466Z,13.93
2019-02-07T23:01:11.843Z,14.50
2019-02-07T23:06:16.056Z,14.80
2019-02-07T23:11:21.307Z,15.70
2019-02-07T23:16:25.584Z,12.87
2019-02-07T23:21:29.930Z,12.47
2019-02-07T23:26:34.203Z,11.30
2019-02-07T23:31:39.284Z,12.63
2019-02-07T23:36:43.486Z,12.47
2019-02-07T23:41:47.733Z,14.90
2019-02-07T23:46:51.926Z,15.60
2019-02-07T23:51:56.225Z,13.67
2019-02-07T23:57:00.428Z,12.33
